Time;durP1;ratioP1;P1;durP2;ratioP2;P2;SDS_P1;SDS_P2;PMS_P1;PMS_P2;Temp;Humidity;BMP_temperature;BMP_pressure;BME280_temperature;BME280_humidity;BME280_pressure;Samples;Min_cycle;Max_cycle;Signal;HPM_P1;HPM_P2
2022/06/18 00:02:05;;;;;;;5.50;2.90;;;20.30;49.20;;;;;;5133205;28;20566;-48
2022/06/18 00:04:35;;;;;;;3.10;2.90;;;20.20;49.20;;;;;;5134742;28;20205;-48
2022/06/18 00:07:08;;;;;;;5.60;3.27;;;20.20;49.30;;;;;;5123349;28;20535;-48
2022/06/18 00:09:41;;;;;;;8.70;3.10;;;20.10;49.50;;;;;;5128397;28;20177;-48
2022/06/18 00:15:23;;;;;;;3.23;3.03;;;20.00;49.70;;;;;;5140536;28;20429;-48
2022/06/18 00:17:54;;;;;;;3.10;2.60;;;20.00;49.70;;;;;;5139415;28;20809;-49
2022/06/18 00:20:28;;;;;;;6.20;3.37;;;19.90;49.80;;;;;;5130288;28;20440;-48
2022/06/18 00:23:01;;;;;;;3.67;3.47;;;19.90;49.90;;;;;;5131425;28;20481;-49
2022/06/18 00:25:36;;;;;;;3.37;3.07;;;19.90;50.20;;;;;;5137221;28;20784;-47
2022/06/18 00:28:22;;;;;;;5.10;3.63;;;19.90;50.20;;;;;;5136615;28;20437;-48
2022/06/18 00:30:54;;;;;;;3.27;3.00;;;19.80;50.40;;;;;;5139534;28;20506;-49
2022/06/18 00:33:25;;;;;;;3.63;3.30;;;19.80;50.70;;;;;;5135613;28;20515;-48
2022/06/18 00:36:00;;;;;;;4.43;3.53;;;19.80;50.70;;;;;;5141188;28;20445;-48
2022/06/18 00:38:35;;;;;;;8.80;4.10;;;19.70;50.90;;;;;;5129844;28;20442;-48
2022/06/18 00:41:07;;;;;;;9.83;3.50;;;19.60;51.10;;;;;;5132468;28;21173;-47
2022/06/18 00:44:04;;;;;;;3.37;3.17;;;19.60;51.10;;;;;;5136874;28;20473;-49
2022/06/18 00:46:52;;;;;;;5.67;3.43;;;19.60;51.30;;;;;;5140522;28;20504;-47
2022/06/18 00:50:00;;;;;;;8.30;3.23;;;19.60;51.30;;;;;;5136827;28;20950;-48
2022/06/18 00:52:42;;;;;;;2.67;2.40;;;19.50;51.30;;;;;;5137001;28;20469;-50
2022/06/18 00:55:25;;;;;;;3.23;2.87;;;19.50;51.30;;;;;;5134044;28;20447;-49
2022/06/18 00:58:17;;;;;;;7.30;3.87;;;19.50;51.00;;;;;;5138888;28;20487;-49
2022/06/18 01:00:49;;;;;;;3.47;2.93;;;19.50;51.20;;;;;;5140447;28;20883;-50
2022/06/18 01:03:31;;;;;;;3.50;3.30;;;19.40;50.90;;;;;;5133982;28;20627;-49
2022/06/18 01:06:40;;;;;;;3.30;3.10;;;19.50;50.70;;;;;;5133225;28;20434;-49
2022/06/18 01:09:15;;;;;;;3.87;3.57;;;19.50;51.00;;;;;;5129091;28;20503;-48
2022/06/18 01:11:46;;;;;;;11.80;2.90;;;19.50;50.80;;;;;;5139100;28;20895;-48
2022/06/18 01:14:18;;;;;;;3.60;3.40;;;19.50;50.90;;;;;;5124854;28;21004;-58
2022/06/18 01:16:49;;;;;;;7.57;4.87;;;19.50;50.80;;;;;;5135526;28;20441;-49
2022/06/18 01:19:28;;;;;;;6.07;4.23;;;19.50;50.90;;;;;;5139345;28;20445;-49
2022/06/18 01:22:18;;;;;;;12.43;5.20;;;19.50;51.20;;;;;;5135314;28;20249;-48
2022/06/18 01:24:48;;;;;;;11.97;5.23;;;19.50;51.00;;;;;;5133734;28;20437;-49
2022/06/18 01:27:19;;;;;;;6.43;4.23;;;19.50;50.90;;;;;;5137764;28;20797;-49
2022/06/18 01:29:51;;;;;;;3.63;3.33;;;19.60;50.80;;;;;;5137108;28;20279;-48
2022/06/18 01:32:22;;;;;;;3.43;3.13;;;19.50;50.60;;;;;;5140721;28;20454;-49
2022/06/18 01:34:52;;;;;;;4.77;3.50;;;19.50;50.80;;;;;;5131541;28;20460;-49
2022/06/18 01:37:23;;;;;;;6.03;3.80;;;19.50;50.20;;;;;;5136896;28;20182;-49
2022/06/18 01:39:53;;;;;;;4.47;3.77;;;19.40;50.40;;;;;;5135804;28;20185;-49
2022/06/18 01:42:32;;;;;;;4.13;3.80;;;19.50;50.40;;;;;;5131991;28;20207;-49
2022/06/18 01:45:07;;;;;;;2.67;2.57;;;19.40;50.20;;;;;;5136220;28;20269;-48
2022/06/18 01:47:42;;;;;;;3.60;3.23;;;19.40;50.60;;;;;;5133277;28;20993;-48
2022/06/18 01:50:16;;;;;;;3.23;2.87;;;19.40;50.50;;;;;;5136635;28;20436;-50
2022/06/18 01:52:53;;;;;;;7.63;2.87;;;19.40;50.50;;;;;;5138794;28;20449;-49
2022/06/18 01:55:28;;;;;;;3.33;3.13;;;19.40;50.90;;;;;;5134911;28;20546;-48
2022/06/18 01:58:04;;;;;;;5.73;3.60;;;19.40;50.20;;;;;;5132525;28;20441;-48
2022/06/18 02:00:35;;;;;;;3.87;3.67;;;19.40;50.20;;;;;;5121007;28;20428;-48
2022/06/18 02:03:06;;;;;;;3.97;3.70;;;19.30;50.30;;;;;;5138931;28;20499;-48
2022/06/18 02:05:37;;;;;;;3.53;3.23;;;19.20;50.40;;;;;;5133449;28;20174;-49
2022/06/18 02:08:10;;;;;;;3.30;3.10;;;19.20;50.50;;;;;;5139428;28;20444;-49
2022/06/18 02:10:57;;;;;;;2.90;2.80;;;19.20;50.40;;;;;;5139073;28;20433;-49
2022/06/18 02:13:34;;;;;;;6.63;2.97;;;19.20;50.60;;;;;;5140646;28;20461;-48
2022/06/18 02:16:10;;;;;;;3.83;3.53;;;19.10;50.90;;;;;;5140878;28;20929;-49
2022/06/18 02:18:43;;;;;;;8.70;2.90;;;19.00;50.90;;;;;;5134465;28;20591;-49
2022/06/18 02:21:16;;;;;;;3.30;3.10;;;19.00;51.00;;;;;;5133976;28;20433;-48
2022/06/18 02:23:49;;;;;;;8.53;2.93;;;19.00;51.10;;;;;;5138207;28;20526;-48
2022/06/18 02:26:25;;;;;;;3.90;3.27;;;19.00;51.20;;;;;;5138417;28;20441;-48
2022/06/18 02:28:57;;;;;;;3.27;2.97;;;19.00;51.10;;;;;;5136752;28;21086;-49
2022/06/18 02:31:33;;;;;;;4.00;3.00;;;18.90;51.30;;;;;;5137525;28;20445;-49
2022/06/18 02:34:10;;;;;;;2.63;2.53;;;18.90;51.40;;;;;;5139834;28;20781;-49
2022/06/18 02:36:41;;;;;;;4.37;3.40;;;19.10;51.30;;;;;;5127242;28;20441;-49
2022/06/18 02:39:28;;;;;;;8.00;2.90;;;18.90;51.40;;;;;;5131490;28;20441;-49
2022/06/18 02:42:06;;;;;;;3.30;3.00;;;19.00;51.70;;;;;;5132773;28;20362;-49
2022/06/18 02:44:42;;;;;;;3.53;3.33;;;18.90;52.00;;;;;;5129363;28;20476;-48
2022/06/18 02:47:15;;;;;;;2.53;2.30;;;18.80;51.80;;;;;;5135873;28;20490;-50
2022/06/18 02:49:54;;;;;;;7.30;3.33;;;18.80;52.10;;;;;;5139817;28;21231;-49
2022/06/18 02:52:30;;;;;;;4.83;2.73;;;18.70;52.30;;;;;;5123343;28;20506;-48
2022/06/18 02:55:09;;;;;;;3.00;2.70;;;18.80;52.40;;;;;;5140490;28;22513;-49
2022/06/18 02:57:40;;;;;;;4.07;2.87;;;18.70;52.40;;;;;;5146366;28;20434;-48
2022/06/18 03:00:13;;;;;;;2.40;2.40;;;18.70;52.70;;;;;;5138320;28;20429;-49
2022/06/18 03:02:44;;;;;;;2.93;2.63;;;18.60;52.80;;;;;;5138588;28;20475;-48
2022/06/18 03:05:21;;;;;;;5.53;2.50;;;18.70;53.00;;;;;;5121338;28;20445;-48
2022/06/18 03:07:52;;;;;;;4.57;2.90;;;18.70;52.80;;;;;;5136450;28;20189;-48
2022/06/18 03:13:11;;;;;;;2.03;1.90;;;18.80;52.60;;;;;;5127901;28;20244;-49
2022/06/18 03:15:42;;;;;;;2.70;2.60;;;19.00;52.40;;;;;;5127186;28;20498;-48
2022/06/18 03:18:14;;;;;;;2.47;2.23;;;18.90;52.30;;;;;;5136987;28;20184;-48
2022/06/18 03:21:09;;;;;;;3.13;2.83;;;19.00;52.10;;;;;;5129916;28;20189;-48
2022/06/18 03:23:39;;;;;;;3.70;2.83;;;19.00;52.20;;;;;;5127141;28;20468;-49
2022/06/18 03:26:11;;;;;;;2.80;2.17;;;19.10;51.90;;;;;;5130540;28;20472;-50
2022/06/18 03:28:43;;;;;;;7.83;3.03;;;19.20;52.00;;;;;;5137866;28;20186;-49
2022/06/18 03:31:14;;;;;;;2.20;2.10;;;19.20;52.10;;;;;;5119979;28;20445;-49
2022/06/18 03:33:46;;;;;;;2.80;2.40;;;19.20;52.20;;;;;;5150096;28;20529;-48
2022/06/18 03:36:19;;;;;;;5.03;2.93;;;19.00;52.90;;;;;;5136697;28;20186;-49
2022/06/18 03:38:50;;;;;;;3.03;2.90;;;18.90;53.00;;;;;;5135657;28;20802;-48
2022/06/18 03:41:22;;;;;;;2.83;2.60;;;19.00;52.90;;;;;;5139958;28;20472;-49
2022/06/18 03:43:54;;;;;;;3.90;2.60;;;19.00;53.10;;;;;;5129626;28;20521;-48
2022/06/18 03:46:24;;;;;;;3.27;2.97;;;19.00;53.30;;;;;;5138399;28;20436;-49
2022/06/18 03:49:00;;;;;;;3.07;2.77;;;19.00;53.50;;;;;;5141179;28;20499;-48
2022/06/18 03:51:33;;;;;;;2.53;2.27;;;19.00;53.50;;;;;;5144378;28;20237;-48
2022/06/18 03:54:03;;;;;;;2.73;2.60;;;19.00;53.50;;;;;;5138134;28;20496;-47
2022/06/18 03:56:34;;;;;;;2.97;2.67;;;19.00;53.90;;;;;;5140124;28;20483;-49
2022/06/18 03:59:05;;;;;;;3.83;2.83;;;19.10;53.50;;;;;;5140324;28;20597;-49
2022/06/18 04:01:40;;;;;;;1.90;1.80;;;19.20;53.30;;;;;;5137312;28;20190;-48
2022/06/18 04:04:12;;;;;;;4.13;2.50;;;19.40;52.80;;;;;;5130646;28;20201;-49
2022/06/18 04:06:43;;;;;;;2.37;2.20;;;19.40;53.30;;;;;;5138772;28;20460;-48
2022/06/18 04:09:14;;;;;;;3.60;3.00;;;19.40;52.60;;;;;;5133878;28;20437;-48
2022/06/18 04:11:44;;;;;;;3.13;2.83;;;19.50;52.60;;;;;;5134656;28;20902;-47
2022/06/18 04:14:15;;;;;;;2.10;2.10;;;19.50;52.80;;;;;;5134147;28;20197;-48
2022/06/18 04:16:45;;;;;;;2.40;2.30;;;19.60;52.80;;;;;;5129237;28;20643;-49
2022/06/18 04:19:16;;;;;;;2.53;2.33;;;19.70;52.80;;;;;;5129239;28;20198;-48
2022/06/18 04:21:47;;;;;;;2.20;1.93;;;19.90;52.40;;;;;;5141121;28;20237;-49
2022/06/18 04:24:18;;;;;;;2.07;1.97;;;19.90;52.40;;;;;;5138034;28;20236;-49
2022/06/18 04:26:49;;;;;;;7.23;2.37;;;20.10;52.40;;;;;;5139074;28;20258;-49
2022/06/18 04:29:19;;;;;;;8.00;2.67;;;20.30;51.90;;;;;;5134844;28;20540;-49
2022/06/18 04:31:50;;;;;;;3.70;2.20;;;20.60;51.40;;;;;;5137210;28;20470;-49
2022/06/18 04:34:21;;;;;;;2.83;2.50;;;21.00;50.60;;;;;;5139988;28;20189;-49
2022/06/18 04:36:52;;;;;;;5.20;2.07;;;21.50;49.30;;;;;;5140567;28;20201;-49
2022/06/18 04:39:24;;;;;;;2.50;2.10;;;21.60;49.10;;;;;;5142505;28;20726;-49
2022/06/18 04:41:55;;;;;;;2.53;2.00;;;22.00;48.20;;;;;;5137165;28;20229;-50
2022/06/18 04:44:26;;;;;;;3.60;2.47;;;22.80;47.00;;;;;;5140504;28;20456;-48
2022/06/18 04:46:57;;;;;;;1.83;1.73;;;23.70;45.30;;;;;;5139178;28;20432;-49
2022/06/18 04:49:28;;;;;;;3.60;1.70;;;24.30;44.40;;;;;;5131664;28;20189;-49
2022/06/18 04:51:58;;;;;;;14.23;4.53;;;25.50;42.50;;;;;;5121840;28;20215;-49
2022/06/18 04:54:29;;;;;;;1.40;1.40;;;26.20;41.40;;;;;;5137162;28;20182;-49
2022/06/18 04:56:59;;;;;;;3.13;2.00;;;26.60;39.70;;;;;;5128668;28;20204;-49
2022/06/18 04:59:31;;;;;;;3.80;1.73;;;27.00;39.70;;;;;;5135733;28;20190;-50
2022/06/18 05:02:07;;;;;;;1.40;1.40;;;27.10;39.50;;;;;;5125098;28;20221;-50
2022/06/18 05:04:37;;;;;;;3.03;1.70;;;27.50;38.10;;;;;;5155277;28;20464;-48
2022/06/18 05:07:08;;;;;;;1.50;1.40;;;27.40;38.60;;;;;;5139718;28;20448;-49
2022/06/18 05:09:39;;;;;;;1.17;1.17;;;27.90;37.20;;;;;;5137842;28;20193;-49
2022/06/18 05:12:10;;;;;;;6.40;1.60;;;29.00;36.10;;;;;;5138986;28;20205;-49
2022/06/18 05:14:40;;;;;;;1.10;1.10;;;29.50;34.80;;;;;;5137210;28;20200;-50
2022/06/18 05:17:30;;;;;;;0.90;0.90;;;30.60;33.10;;;;;;5142764;28;20180;-50
2022/06/18 05:20:02;;;;;;;3.53;1.60;;;30.60;32.30;;;;;;5140890;28;20568;-51
2022/06/18 05:22:32;;;;;;;1.20;1.20;;;31.20;31.90;;;;;;5141838;28;20460;-49
2022/06/18 05:25:03;;;;;;;2.50;1.93;;;31.90;31.70;;;;;;5139200;28;20217;-50
2022/06/18 05:27:35;;;;;;;2.40;1.17;;;33.30;29.60;;;;;;5135327;28;20189;-50
2022/06/18 05:30:09;;;;;;;0.85;0.85;;;34.60;28.30;;;;;;5138632;28;20247;-50
2022/06/18 05:32:39;;;;;;;1.35;1.27;;;35.20;27.60;;;;;;5141316;28;20201;-49
2022/06/18 05:35:11;;;;;;;1.77;1.42;;;35.60;26.70;;;;;;5138814;28;20182;-49
2022/06/18 05:37:42;;;;;;;2.53;1.40;;;35.90;26.60;;;;;;5140067;28;20658;-50
2022/06/18 05:40:13;;;;;;;1.30;1.20;;;36.30;25.80;;;;;;5143857;28;20200;-51
2022/06/18 05:42:44;;;;;;;0.63;0.60;;;37.10;25.40;;;;;;5137301;28;20216;-49
2022/06/18 05:45:14;;;;;;;1.13;1.10;;;37.40;25.20;;;;;;5132224;28;20259;-49
2022/06/18 05:47:45;;;;;;;1.10;1.10;;;38.60;24.60;;;;;;5139819;28;20204;-51
2022/06/18 05:50:18;;;;;;;1.35;1.35;;;38.60;24.00;;;;;;5136789;28;20328;-50
2022/06/18 05:52:49;;;;;;;0.90;0.90;;;38.90;24.10;;;;;;5131889;28;20212;-49
2022/06/18 05:55:21;;;;;;;1.00;1.00;;;39.60;23.40;;;;;;5135965;28;20200;-49
2022/06/18 05:57:55;;;;;;;2.08;1.73;;;40.00;23.20;;;;;;5139365;28;20251;-49
2022/06/18 06:00:29;;;;;;;5.75;1.25;;;39.90;23.00;;;;;;5139469;28;20691;-50
2022/06/18 06:03:00;;;;;;;2.00;1.83;;;39.80;23.70;;;;;;5136587;28;20205;-53
2022/06/18 06:05:32;;;;;;;1.45;1.35;;;40.30;22.80;;;;;;5139729;28;20217;-51
2022/06/18 06:08:03;;;;;;;2.15;1.20;;;40.70;22.30;;;;;;5140831;28;20271;-49
2022/06/18 06:13:24;;;;;;;2.33;1.27;;;41.20;22.30;;;;;;5140969;28;20220;-51
2022/06/18 06:15:56;;;;;;;3.60;1.40;;;41.30;21.90;;;;;;5137855;28;20185;-50
2022/06/18 06:18:27;;;;;;;1.67;1.58;;;41.20;21.90;;;;;;5131194;28;20188;-51
2022/06/18 06:20:59;;;;;;;1.95;1.85;;;40.60;21.70;;;;;;5135849;28;20191;-50
2022/06/18 06:23:30;;;;;;;1.30;1.30;;;41.40;22.00;;;;;;5141538;28;20304;-51
2022/06/18 06:26:01;;;;;;;1.73;1.60;;;42.10;21.50;;;;;;5140849;28;20711;-50
2022/06/18 06:28:32;;;;;;;1.55;1.52;;;42.20;21.10;;;;;;5141663;28;20181;-50
2022/06/18 06:31:03;;;;;;;1.67;1.58;;;41.90;21.40;;;;;;5138429;28;20236;-50
2022/06/18 06:33:33;;;;;;;1.75;1.50;;;41.60;21.20;;;;;;5130977;28;20633;-50
2022/06/18 06:36:05;;;;;;;1.80;1.70;;;40.60;21.50;;;;;;5137263;28;20843;-50
2022/06/18 06:38:38;;;;;;;5.60;4.13;;;40.60;22.00;;;;;;5135604;28;20209;-50
2022/06/18 06:41:21;;;;;;;10.55;2.42;;;41.20;21.80;;;;;;5136377;28;20189;-51
2022/06/18 06:43:52;;;;;;;2.70;2.50;;;41.70;21.40;;;;;;5138407;28;20681;-50
2022/06/18 06:46:22;;;;;;;1.38;1.33;;;41.90;21.30;;;;;;5138907;28;20248;-50
2022/06/18 06:48:53;;;;;;;1.45;1.35;;;42.80;20.90;;;;;;5131408;28;20327;-50
2022/06/18 06:51:25;;;;;;;1.70;1.70;;;43.30;20.40;;;;;;5134410;28;20193;-50
2022/06/18 06:53:56;;;;;;;2.20;1.85;;;43.40;20.10;;;;;;5136919;28;20192;-49
2022/06/18 06:59:16;;;;;;;2.92;1.58;;;44.20;19.90;;;;;;5134919;28;20196;-50
2022/06/18 07:01:47;;;;;;;1.90;1.80;;;44.10;19.90;;;;;;5135426;28;20296;-49
2022/06/18 07:04:17;;;;;;;2.65;1.65;;;43.10;20.50;;;;;;5131263;28;20206;-49
2022/06/18 07:06:48;;;;;;;1.80;1.80;;;43.70;20.20;;;;;;5132348;28;20193;-50
2022/06/18 07:09:19;;;;;;;2.67;2.50;;;43.80;19.70;;;;;;5130844;28;20276;-50
2022/06/18 07:11:49;;;;;;;3.75;2.03;;;44.00;19.60;;;;;;5135635;28;20211;-50
2022/06/18 07:14:20;;;;;;;2.20;2.10;;;44.10;19.70;;;;;;5134820;28;20216;-49
2022/06/18 07:16:52;;;;;;;1.58;1.58;;;44.30;19.50;;;;;;5132986;28;20236;-50
2022/06/18 07:19:22;;;;;;;1.48;1.48;;;44.40;19.20;;;;;;5137089;28;20653;-49
2022/06/18 07:21:53;;;;;;;4.13;1.83;;;44.30;19.60;;;;;;5121344;28;20205;-51
2022/06/18 07:24:24;;;;;;;6.82;2.50;;;44.30;19.40;;;;;;5138068;28;20259;-51
2022/06/18 07:26:55;;;;;;;2.17;2.05;;;44.70;19.10;;;;;;5144421;28;20173;-51
2022/06/18 07:29:25;;;;;;;2.55;1.80;;;44.40;19.50;;;;;;5139101;28;20186;-51
2022/06/18 07:32:17;;;;;;;1.83;1.77;;;44.80;19.30;;;;;;5144641;28;20674;-49
2022/06/18 07:34:48;;;;;;;5.47;2.70;;;44.50;19.40;;;;;;5141823;28;20208;-50
2022/06/18 07:37:19;;;;;;;2.88;1.88;;;44.00;19.50;;;;;;5142122;28;20253;-50
2022/06/18 07:39:50;;;;;;;2.40;2.20;;;43.60;19.50;;;;;;5142165;28;20184;-50
2022/06/18 07:42:23;;;;;;;1.60;1.52;;;44.10;19.50;;;;;;5139697;28;20200;-50
2022/06/18 07:44:53;;;;;;;1.63;1.52;;;44.30;19.40;;;;;;5145685;28;21752;-49
2022/06/18 07:47:24;;;;;;;2.03;1.83;;;44.00;19.40;;;;;;5135864;28;20219;-50
2022/06/18 07:49:54;;;;;;;4.57;2.50;;;43.90;19.70;;;;;;5142854;28;20176;-50
2022/06/18 07:52:25;;;;;;;1.70;1.58;;;43.80;19.80;;;;;;5142913;28;20681;-49
2022/06/18 07:54:56;;;;;;;2.25;1.70;;;44.30;19.40;;;;;;5140660;28;20182;-50
2022/06/18 07:57:27;;;;;;;3.70;2.10;;;44.50;19.30;;;;;;5137995;28;20181;-48
2022/06/18 07:59:57;;;;;;;2.35;1.83;;;44.30;19.40;;;;;;5126316;28;20193;-50
2022/06/18 08:02:28;;;;;;;14.43;2.15;;;44.70;19.10;;;;;;5121107;28;20225;-50
2022/06/18 08:04:58;;;;;;;6.53;2.10;;;44.40;19.20;;;;;;5125244;28;20185;-50
2022/06/18 08:07:29;;;;;;;2.13;1.63;;;44.80;19.20;;;;;;5129781;28;20181;-50
2022/06/18 08:10:00;;;;;;;5.03;1.60;;;45.10;19.10;;;;;;5136634;28;20247;-49
2022/06/18 08:12:32;;;;;;;2.92;1.70;;;45.50;19.00;;;;;;5137532;28;20732;-49
2022/06/18 08:15:05;;;;;;;6.85;1.58;;;45.80;18.70;;;;;;5130657;28;20244;-50
2022/06/18 08:17:36;;;;;;;2.22;2.15;;;45.60;18.60;;;;;;5142960;28;20178;-50
2022/06/18 08:20:08;;;;;;;2.05;1.73;;;44.80;18.90;;;;;;5142797;28;20297;-50
2022/06/18 08:22:44;;;;;;;1.50;1.40;;;44.90;19.30;;;;;;5140073;28;20291;-52
2022/06/18 08:25:16;;;;;;;1.20;1.20;;;45.00;19.00;;;;;;5145894;28;20338;-51
2022/06/18 08:27:47;;;;;;;1.95;1.80;;;45.00;19.00;;;;;;5137851;28;20235;-48
2022/06/18 08:30:18;;;;;;;1.90;1.80;;;45.00;19.00;;;;;;5138683;28;20181;-51
2022/06/18 08:32:48;;;;;;;1.77;1.60;;;44.90;19.00;;;;;;5143734;28;20189;-52
2022/06/18 08:35:19;;;;;;;2.15;2.05;;;45.20;18.90;;;;;;5141295;28;20244;-52
2022/06/18 08:37:51;;;;;;;2.13;2.03;;;44.60;19.20;;;;;;5141628;28;20178;-51
2022/06/18 08:40:37;;;;;;;1.73;1.63;;;44.20;19.50;;;;;;5143626;28;20649;-51
2022/06/18 08:43:39;;;;;;;2.72;2.60;;;44.50;19.40;;;;;;5142389;28;20213;-52
2022/06/18 08:46:45;;;;;;;2.53;1.80;;;44.30;19.50;;;;;;5140351;28;20193;-51
2022/06/18 08:49:21;;;;;;;2.05;1.70;;;44.70;19.60;;;;;;5142865;28;20184;-51
2022/06/18 08:52:16;;;;;;;2.42;1.55;;;44.50;19.70;;;;;;5146738;28;20216;-51
2022/06/18 08:54:49;;;;;;;2.08;1.98;;;43.00;20.50;;;;;;5144615;28;20239;-52
2022/06/18 08:57:35;;;;;;;11.30;1.90;;;40.40;22.10;;;;;;5135062;28;20311;-51
2022/06/18 09:00:09;;;;;;;3.60;2.17;;;38.40;24.00;;;;;;5139330;28;20192;-51
2022/06/18 09:02:56;;;;;;;2.85;2.13;;;37.00;25.20;;;;;;5139784;28;20225;-52
2022/06/18 09:05:27;;;;;;;3.90;1.65;;;36.00;26.60;;;;;;5144429;28;20184;-50
2022/06/18 09:08:25;;;;;;;14.30;2.00;;;35.30;27.10;;;;;;5141127;28;20196;-51
2022/06/18 09:11:21;;;;;;;2.60;2.08;;;34.30;27.90;;;;;;5153409;28;20177;-49
2022/06/18 09:13:59;;;;;;;2.25;1.55;;;33.70;28.80;;;;;;5138785;28;20209;-52
2022/06/18 09:16:48;;;;;;;1.40;1.30;;;33.50;29.40;;;;;;5135736;28;20185;-52
2022/06/18 09:19:21;;;;;;;1.77;1.77;;;33.20;29.40;;;;;;5132152;28;20665;-51
2022/06/18 09:21:55;;;;;;;2.67;1.60;;;33.00;29.80;;;;;;5133169;28;20212;-51
2022/06/18 09:24:45;;;;;;;1.15;1.15;;;33.00;30.00;;;;;;5144972;28;20308;-50
2022/06/18 09:27:27;;;;;;;1.47;1.40;;;32.80;30.20;;;;;;5140142;28;20283;-51
2022/06/18 09:30:06;;;;;;;2.10;2.00;;;32.60;30.40;;;;;;5139401;28;20181;-51
2022/06/18 09:32:52;;;;;;;1.40;1.40;;;32.40;31.30;;;;;;5139745;28;20225;-51
2022/06/18 09:35:36;;;;;;;1.50;1.50;;;32.20;30.80;;;;;;5136906;28;20185;-52
2022/06/18 09:38:19;;;;;;;1.90;1.80;;;32.20;31.20;;;;;;5136586;28;20232;-51
2022/06/18 09:41:04;;;;;;;7.43;1.30;;;32.00;31.50;;;;;;5142384;28;20665;-51
2022/06/18 09:43:57;;;;;;;5.90;1.90;;;32.00;31.70;;;;;;5129675;28;20228;-53
2022/06/18 09:46:41;;;;;;;15.40;2.53;;;32.20;31.80;;;;;;5130678;28;20205;-50
2022/06/18 09:49:12;;;;;;;3.80;1.40;;;32.30;31.80;;;;;;5128838;28;20224;-51
2022/06/18 09:52:04;;;;;;;2.43;1.57;;;32.30;31.70;;;;;;5131031;28;20288;-51
2022/06/18 09:54:39;;;;;;;5.90;2.13;;;32.50;31.80;;;;;;5134372;28;20189;-51
2022/06/18 09:57:13;;;;;;;1.50;1.40;;;32.30;31.50;;;;;;5134680;28;20192;-50
2022/06/18 10:00:02;;;;;;;2.90;2.67;;;32.30;31.70;;;;;;5144173;28;20189;-51
2022/06/18 10:02:42;;;;;;;2.03;1.90;;;32.40;31.90;;;;;;5141644;28;20693;-51
2022/06/18 10:08:14;;;;;;;3.40;1.83;;;32.30;32.10;;;;;;5138545;28;20615;-50
2022/06/18 10:10:54;;;;;;;1.50;1.50;;;32.20;32.50;;;;;;5142053;28;20216;-52
2022/06/18 10:13:28;;;;;;;1.57;1.57;;;32.20;32.20;;;;;;5141556;28;20204;-50
2022/06/18 10:16:05;;;;;;;9.63;2.13;;;32.20;32.40;;;;;;5119566;28;22213;-51
2022/06/18 10:18:51;;;;;;;5.60;1.50;;;32.10;33.00;;;;;;5139629;28;20583;-51
2022/06/18 10:21:41;;;;;;;3.17;2.50;;;32.30;33.40;;;;;;5137716;28;20189;-51
2022/06/18 10:24:34;;;;;;;3.33;2.40;;;32.20;33.30;;;;;;5139165;28;20233;-51
2022/06/18 10:27:17;;;;;;;5.10;2.33;;;32.20;33.40;;;;;;5139074;28;20185;-51
2022/06/18 10:30:03;;;;;;;3.60;2.20;;;32.20;33.60;;;;;;5141965;28;20266;-51
2022/06/18 10:32:58;;;;;;;3.07;2.87;;;32.30;33.60;;;;;;5139564;28;20236;-51
2022/06/18 10:35:38;;;;;;;2.10;2.00;;;32.30;33.50;;;;;;5159225;28;20185;-52
2022/06/18 10:38:26;;;;;;;11.63;2.03;;;32.30;33.30;;;;;;5141312;28;20185;-53
2022/06/18 10:41:25;;;;;;;3.53;2.43;;;32.20;33.60;;;;;;5147132;28;20673;-52
2022/06/18 10:44:18;;;;;;;2.97;2.67;;;32.00;33.80;;;;;;5138647;28;20719;-51
2022/06/18 10:47:03;;;;;;;2.60;2.40;;;32.00;34.40;;;;;;5147344;28;20237;-50
2022/06/18 10:49:35;;;;;;;5.33;2.00;;;32.00;33.90;;;;;;5139854;28;20642;-50
2022/06/18 10:52:17;;;;;;;4.00;2.40;;;31.70;34.10;;;;;;5136635;28;20220;-51
2022/06/18 10:54:48;;;;;;;3.13;2.00;;;31.60;34.10;;;;;;5139890;28;20215;-51
2022/06/18 10:57:26;;;;;;;1.73;1.63;;;31.50;33.70;;;;;;5141926;28;20215;-52
2022/06/18 11:00:16;;;;;;;1.93;1.83;;;31.60;33.90;;;;;;5153533;28;20325;-51
2022/06/18 11:02:47;;;;;;;6.03;2.37;;;31.60;34.00;;;;;;5144762;28;20216;-53
2022/06/18 11:05:29;;;;;;;1.90;1.80;;;31.60;34.60;;;;;;5148557;28;20349;-53
2022/06/18 11:08:02;;;;;;;5.47;2.03;;;31.70;34.40;;;;;;5140496;28;20255;-51
2022/06/18 11:10:48;;;;;;;3.20;2.70;;;31.80;34.20;;;;;;5143249;28;20247;-51
2022/06/18 11:13:29;;;;;;;3.40;2.23;;;31.80;33.40;;;;;;5145650;28;20223;-52
2022/06/18 11:16:12;;;;;;;4.40;2.60;;;31.90;32.50;;;;;;5147200;28;20672;-51
2022/06/18 11:19:11;;;;;;;2.17;2.03;;;31.90;33.30;;;;;;5139908;28;20198;-51
2022/06/18 11:21:45;;;;;;;6.00;2.37;;;32.00;33.60;;;;;;5139630;28;20221;-52
2022/06/18 11:24:23;;;;;;;4.40;2.80;;;32.10;32.80;;;;;;5137183;28;20216;-51
2022/06/18 11:27:00;;;;;;;6.30;2.60;;;32.10;33.00;;;;;;5142256;28;20187;-52
2022/06/18 11:29:36;;;;;;;2.93;2.57;;;32.00;32.90;;;;;;5145289;28;20173;-50
2022/06/18 11:32:15;;;;;;;9.53;2.80;;;32.10;32.80;;;;;;5142776;28;20280;-50
2022/06/18 11:34:50;;;;;;;3.70;2.20;;;32.10;32.30;;;;;;5142904;28;20207;-49
2022/06/18 11:37:26;;;;;;;10.30;2.73;;;32.10;32.30;;;;;;5137946;28;20263;-53
2022/06/18 11:40:15;;;;;;;4.23;2.20;;;32.10;31.90;;;;;;5136477;28;21493;-49
2022/06/18 11:42:55;;;;;;;5.60;2.70;;;32.10;31.80;;;;;;5141307;28;20209;-50
2022/06/18 11:45:35;;;;;;;3.90;2.90;;;31.90;32.40;;;;;;5139763;28;20572;-49
2022/06/18 11:48:32;;;;;;;5.27;2.20;;;31.90;32.80;;;;;;5139020;28;20316;-55
2022/06/18 11:51:07;;;;;;;4.63;2.77;;;32.00;31.90;;;;;;5137305;28;20471;-50
2022/06/18 11:53:43;;;;;;;6.00;2.70;;;32.00;31.50;;;;;;5138880;28;20204;-50
2022/06/18 11:56:34;;;;;;;6.30;2.23;;;32.00;31.70;;;;;;5140986;28;20217;-51
2022/06/18 11:59:15;;;;;;;9.27;3.00;;;31.90;31.40;;;;;;5138818;28;20198;-51
2022/06/18 12:02:02;;;;;;;1.70;1.60;;;32.00;31.80;;;;;;5133002;28;20248;-50
2022/06/18 12:04:43;;;;;;;11.10;2.07;;;32.10;32.00;;;;;;5130073;28;21364;-51
2022/06/18 12:07:26;;;;;;;13.00;4.73;;;32.30;32.10;;;;;;5133660;28;20217;-49
2022/06/18 12:09:56;;;;;;;10.17;3.30;;;32.50;32.00;;;;;;5133283;28;20181;-52
2022/06/18 12:12:30;;;;;;;5.23;2.90;;;32.50;32.30;;;;;;5139302;28;20209;-50
2022/06/18 12:15:14;;;;;;;4.30;2.47;;;32.60;32.20;;;;;;5134861;28;20178;-49
2022/06/18 12:17:53;;;;;;;5.50;2.93;;;32.80;32.30;;;;;;5139634;28;20584;-56
2022/06/18 12:20:46;;;;;;;7.50;2.90;;;32.90;31.60;;;;;;5138414;28;20298;-50
2022/06/18 12:23:36;;;;;;;3.77;3.47;;;32.90;31.60;;;;;;5140204;28;20263;-50
2022/06/18 12:26:19;;;;;;;7.07;2.87;;;32.90;31.60;;;;;;5136586;28;20182;-50
2022/06/18 12:29:09;;;;;;;6.93;3.37;;;32.80;31.40;;;;;;5133826;28;20939;-51
2022/06/18 12:31:59;;;;;;;11.30;2.67;;;32.70;31.60;;;;;;5137942;28;20184;-50
2022/06/18 12:34:51;;;;;;;4.80;2.67;;;32.60;31.90;;;;;;5132298;28;20581;-47
2022/06/18 12:37:33;;;;;;;3.10;2.80;;;32.60;32.10;;;;;;5136224;28;20189;-47
2022/06/18 12:40:21;;;;;;;18.20;2.80;;;32.70;32.20;;;;;;5139184;28;20348;-46
2022/06/18 12:42:56;;;;;;;7.47;2.87;;;32.70;32.00;;;;;;5140733;28;20212;-48
2022/06/18 12:45:40;;;;;;;11.33;3.03;;;32.70;32.40;;;;;;5139626;28;20185;-47
2022/06/18 12:48:24;;;;;;;6.37;2.40;;;32.60;31.80;;;;;;5138610;28;20181;-47
2022/06/18 12:51:01;;;;;;;6.00;3.30;;;32.70;31.90;;;;;;5142917;28;20185;-47
2022/06/18 12:53:46;;;;;;;12.23;3.30;;;32.90;32.00;;;;;;5143229;28;20250;-47
2022/06/18 12:56:43;;;;;;;3.53;2.13;;;32.90;31.80;;;;;;5136481;28;20506;-47
2022/06/18 12:59:34;;;;;;;4.63;3.03;;;32.90;31.90;;;;;;5140366;28;20193;-47
2022/06/18 13:02:37;;;;;;;15.07;2.90;;;33.00;32.20;;;;;;5141254;28;20303;-48
2022/06/18 13:05:35;;;;;;;8.07;3.90;;;33.00;31.70;;;;;;5137743;28;20251;-49
2022/06/18 13:08:43;;;;;;;4.00;3.23;;;33.00;31.70;;;;;;5150172;28;20540;-47
2022/06/18 13:11:31;;;;;;;7.23;3.60;;;33.10;31.90;;;;;;5141041;28;20697;-47
2022/06/18 13:14:25;;;;;;;17.40;4.00;;;33.20;32.00;;;;;;5133879;28;20241;-48
2022/06/18 13:17:02;;;;;;;5.63;3.55;;;33.30;32.10;;;;;;5142129;28;20181;-48
2022/06/18 13:19:47;;;;;;;8.88;3.78;;;33.50;31.60;;;;;;5138698;28;20488;-49
2022/06/18 13:22:24;;;;;;;7.25;3.45;;;33.60;31.70;;;;;;5154072;28;20208;-48
2022/06/18 13:28:10;;;;;;;4.97;2.75;;;33.60;31.10;;;;;;5146234;28;20231;-49
2022/06/18 13:31:00;;;;;;;12.53;3.10;;;33.50;31.00;;;;;;5137118;28;20193;-47
2022/06/18 13:33:49;;;;;;;11.32;3.22;;;33.50;31.30;;;;;;5135753;28;20209;-48
2022/06/18 13:36:44;;;;;;;12.27;3.90;;;33.50;31.30;;;;;;5138302;28;20240;-50
2022/06/18 13:39:55;;;;;;;8.60;2.90;;;33.50;31.20;;;;;;5134938;28;20596;-48
2022/06/18 13:42:44;;;;;;;5.77;3.13;;;33.40;31.40;;;;;;5140454;28;20205;-47
2022/06/18 13:45:27;;;;;;;17.30;3.60;;;33.30;30.80;;;;;;5139813;28;20188;-48
2022/06/18 13:48:19;;;;;;;5.50;2.83;;;33.20;30.90;;;;;;5133457;28;22410;-48
2022/06/18 13:50:58;;;;;;;4.60;3.80;;;33.10;30.60;;;;;;5138553;28;20189;-49
2022/06/18 13:53:41;;;;;;;7.67;3.37;;;33.00;30.30;;;;;;5136742;28;20208;-49
2022/06/18 13:56:24;;;;;;;20.20;4.03;;;33.00;30.30;;;;;;5132294;28;20243;-49